sensor_id;sensor_type;location;lat;lon;timestamp;temperature;humidity
21518;DHT22;61765;45.794;24.150;2023-06-22T00:07:43;26.40;84.20
21518;DHT22;61765;45.794;24.150;2023-06-22T00:15:49;26.40;84.40
21518;DHT22;61765;45.794;24.150;2023-06-22T00:23:57;26.40;84.50
21518;DHT22;61765;45.794;24.150;2023-06-22T00:32:03;26.00;84.80
21518;DHT22;61765;45.794;24.150;2023-06-22T00:40:11;26.20;84.10
21518;DHT22;61765;45.794;24.150;2023-06-22T00:48:17;26.00;84.30
21518;DHT22;61765;45.794;24.150;2023-06-22T00:56:25;25.90;84.70
21518;DHT22;61765;45.794;24.150;2023-06-22T01:04:36;25.80;85.00
21518;DHT22;61765;45.794;24.150;2023-06-22T01:12:48;25.80;85.00
21518;DHT22;61765;45.794;24.150;2023-06-22T01:20:56;25.90;85.40
21518;DHT22;61765;45.794;24.150;2023-06-22T01:29:06;25.70;85.50
21518;DHT22;61765;45.794;24.150;2023-06-22T01:37:15;25.80;85.40
21518;DHT22;61765;45.794;24.150;2023-06-22T01:45:23;25.50;86.60
21518;DHT22;61765;45.794;24.150;2023-06-22T01:53:29;25.60;86.40
21518;DHT22;61765;45.794;24.150;2023-06-22T02:01:42;25.80;86.40
21518;DHT22;61765;45.794;24.150;2023-06-22T02:09:50;25.50;86.70
21518;DHT22;61765;45.794;24.150;2023-06-22T02:18:00;25.70;86.80
21518;DHT22;61765;45.794;24.150;2023-06-22T02:26:05;25.50;87.10
21518;DHT22;61765;45.794;24.150;2023-06-22T02:34:13;25.40;87.70
21518;DHT22;61765;45.794;24.150;2023-06-22T02:42:20;25.40;87.70
21518;DHT22;61765;45.794;24.150;2023-06-22T02:50:28;25.40;88.00
21518;DHT22;61765;45.794;24.150;2023-06-22T02:58:34;25.50;88.10
21518;DHT22;61765;45.794;24.150;2023-06-22T03:06:47;25.60;87.60
21518;DHT22;61765;45.794;24.150;2023-06-22T03:14:54;25.80;87.00
21518;DHT22;61765;45.794;24.150;2023-06-22T03:23:03;25.60;87.60
21518;DHT22;61765;45.794;24.150;2023-06-22T03:31:09;25.60;87.40
21518;DHT22;61765;45.794;24.150;2023-06-22T03:39:18;25.60;87.60
21518;DHT22;61765;45.794;24.150;2023-06-22T03:47:24;25.70;87.50
21518;DHT22;61765;45.794;24.150;2023-06-22T03:55:35;25.60;88.00
21518;DHT22;61765;45.794;24.150;2023-06-22T04:03:41;25.70;87.50
21518;DHT22;61765;45.794;24.150;2023-06-22T04:11:51;25.50;88.90
21518;DHT22;61765;45.794;24.150;2023-06-22T04:19:56;25.60;88.50
21518;DHT22;61765;45.794;24.150;2023-06-22T04:28:04;25.70;89.40
21518;DHT22;61765;45.794;24.150;2023-06-22T04:36:15;26.30;87.20
21518;DHT22;61765;45.794;24.150;2023-06-22T04:44:23;26.70;85.80
21518;DHT22;61765;45.794;24.150;2023-06-22T04:52:29;26.40;86.60
21518;DHT22;61765;45.794;24.150;2023-06-22T05:00:37;26.50;86.60
21518;DHT22;61765;45.794;24.150;2023-06-22T05:08:42;26.60;87.00
21518;DHT22;61765;45.794;24.150;2023-06-22T05:16:50;27.00;85.80
21518;DHT22;61765;45.794;24.150;2023-06-22T05:25:01;26.90;86.20
21518;DHT22;61765;45.794;24.150;2023-06-22T05:33:09;27.50;84.80
21518;DHT22;61765;45.794;24.150;2023-06-22T05:41:14;27.90;83.70
21518;DHT22;61765;45.794;24.150;2023-06-22T05:49:22;27.80;82.50
21518;DHT22;61765;45.794;24.150;2023-06-22T05:57:32;28.20;82.30
21518;DHT22;61765;45.794;24.150;2023-06-22T06:05:41;28.30;82.80
21518;DHT22;61765;45.794;24.150;2023-06-22T06:13:47;28.50;81.70
21518;DHT22;61765;45.794;24.150;2023-06-22T06:21:56;28.60;81.70
21518;DHT22;61765;45.794;24.150;2023-06-22T06:30:03;29.00;81.30
21518;DHT22;61765;45.794;24.150;2023-06-22T06:38:11;29.20;80.90
21518;DHT22;61765;45.794;24.150;2023-06-22T06:46:17;29.90;78.90
21518;DHT22;61765;45.794;24.150;2023-06-22T06:54:25;29.90;79.30
21518;DHT22;61765;45.794;24.150;2023-06-22T07:02:31;30.20;77.60
21518;DHT22;61765;45.794;24.150;2023-06-22T07:10:39;30.40;78.20
21518;DHT22;61765;45.794;24.150;2023-06-22T07:18:45;30.60;78.90
21518;DHT22;61765;45.794;24.150;2023-06-22T07:26:54;30.90;77.40
21518;DHT22;61765;45.794;24.150;2023-06-22T07:35:01;31.00;77.90
21518;DHT22;61765;45.794;24.150;2023-06-22T07:43:10;32.30;75.20
21518;DHT22;61765;45.794;24.150;2023-06-22T07:51:16;32.60;73.50
21518;DHT22;61765;45.794;24.150;2023-06-22T07:59:24;32.20;75.50
21518;DHT22;61765;45.794;24.150;2023-06-22T08:07:30;32.50;73.30
21518;DHT22;61765;45.794;24.150;2023-06-22T08:15:38;31.70;77.10
21518;DHT22;61765;45.794;24.150;2023-06-22T08:23:55;32.20;75.50
21518;DHT22;61765;45.794;24.150;2023-06-22T08:32:03;32.30;74.80
21518;DHT22;61765;45.794;24.150;2023-06-22T08:40:10;32.60;74.10
21518;DHT22;61765;45.794;24.150;2023-06-22T08:48:18;32.10;74.00
21518;DHT22;61765;45.794;24.150;2023-06-22T08:56:24;32.00;75.90
21518;DHT22;61765;45.794;24.150;2023-06-22T09:04:32;32.30;74.70
21518;DHT22;61765;45.794;24.150;2023-06-22T09:12:39;32.70;73.00
21518;DHT22;61765;45.794;24.150;2023-06-22T09:20:48;33.00;71.90
21518;DHT22;61765;45.794;24.150;2023-06-22T09:29:09;32.40;71.50
21518;DHT22;61765;45.794;24.150;2023-06-22T09:38:01;33.20;71.60
21518;DHT22;61765;45.794;24.150;2023-06-22T09:46:06;34.00;69.00
21518;DHT22;61765;45.794;24.150;2023-06-22T09:54:14;34.20;69.00
21518;DHT22;61765;45.794;24.150;2023-06-22T10:02:20;34.80;67.20
21518;DHT22;61765;45.794;24.150;2023-06-22T10:11:00;34.90;66.20
21518;DHT22;61765;45.794;24.150;2023-06-22T10:19:45;34.00;67.60
21518;DHT22;61765;45.794;24.150;2023-06-22T10:28:35;33.90;67.60
21518;DHT22;61765;45.794;24.150;2023-06-22T10:36:41;34.90;63.40
21518;DHT22;61765;45.794;24.150;2023-06-22T10:44:51;35.70;60.90
21518;DHT22;61765;45.794;24.150;2023-06-22T10:52:57;36.30;59.00
21518;DHT22;61765;45.794;24.150;2023-06-22T11:01:05;36.60;58.00
21518;DHT22;61765;45.794;24.150;2023-06-22T11:09:27;37.00;58.30
21518;DHT22;61765;45.794;24.150;2023-06-22T11:17:36;36.20;58.60
21518;DHT22;61765;45.794;24.150;2023-06-22T11:25:41;35.80;60.10
21518;DHT22;61765;45.794;24.150;2023-06-22T11:33:50;35.30;62.10
21518;DHT22;61765;45.794;24.150;2023-06-22T11:41:56;34.40;64.60
21518;DHT22;61765;45.794;24.150;2023-06-22T11:50:05;33.40;67.20
21518;DHT22;61765;45.794;24.150;2023-06-22T11:58:10;33.00;69.20
21518;DHT22;61765;45.794;24.150;2023-06-22T12:06:18;32.60;70.50
21518;DHT22;61765;45.794;24.150;2023-06-22T12:14:24;32.20;71.60
21518;DHT22;61765;45.794;24.150;2023-06-22T12:22:34;32.10;72.20
21518;DHT22;61765;45.794;24.150;2023-06-22T12:30:40;32.50;72.00
21518;DHT22;61765;45.794;24.150;2023-06-22T12:38:48;35.20;66.70
21518;DHT22;61765;45.794;24.150;2023-06-22T12:46:55;36.00;62.80
21518;DHT22;61765;45.794;24.150;2023-06-22T12:55:04;39.20;60.00
21518;DHT22;61765;45.794;24.150;2023-06-22T13:11:59;51.90;42.50
21518;DHT22;61765;45.794;24.150;2023-06-22T13:20:05;54.00;38.40
21518;DHT22;61765;45.794;24.150;2023-06-22T13:28:14;52.10;38.20
21518;DHT22;61765;45.794;24.150;2023-06-22T13:36:29;47.40;41.50
21518;DHT22;61765;45.794;24.150;2023-06-22T13:44:38;43.00;47.90
21518;DHT22;61765;45.794;24.150;2023-06-22T13:52:43;41.70;49.30
21518;DHT22;61765;45.794;24.150;2023-06-22T14:00:51;45.50;47.20
21518;DHT22;61765;45.794;24.150;2023-06-22T14:08:58;51.90;40.60
21518;DHT22;61765;45.794;24.150;2023-06-22T14:17:06;56.40;36.10
21518;DHT22;61765;45.794;24.150;2023-06-22T14:25:11;57.80;34.10
21518;DHT22;61765;45.794;24.150;2023-06-22T14:33:19;57.80;33.10
21518;DHT22;61765;45.794;24.150;2023-06-22T14:41:25;54.30;33.70
21518;DHT22;61765;45.794;24.150;2023-06-22T14:49:33;46.00;41.50
21518;DHT22;61765;45.794;24.150;2023-06-22T14:57:39;41.40;47.70
21518;DHT22;61765;45.794;24.150;2023-06-22T15:05:47;38.50;52.30
21518;DHT22;61765;45.794;24.150;2023-06-22T15:13:52;36.80;55.10
21518;DHT22;61765;45.794;24.150;2023-06-22T15:22:00;35.50;58.00
21518;DHT22;61765;45.794;24.150;2023-06-22T15:30:07;35.00;60.00
21518;DHT22;61765;45.794;24.150;2023-06-22T15:38:15;34.60;60.80
21518;DHT22;61765;45.794;24.150;2023-06-22T15:46:21;34.20;61.50
21518;DHT22;61765;45.794;24.150;2023-06-22T15:54:29;33.90;63.00
21518;DHT22;61765;45.794;24.150;2023-06-22T16:02:34;33.70;63.40
21518;DHT22;61765;45.794;24.150;2023-06-22T16:10:42;33.50;64.60
21518;DHT22;61765;45.794;24.150;2023-06-22T16:18:48;33.40;64.80
21518;DHT22;61765;45.794;24.150;2023-06-22T16:26:56;33.20;65.10
21518;DHT22;61765;45.794;24.150;2023-06-22T16:35:03;33.20;65.80
21518;DHT22;61765;45.794;24.150;2023-06-22T16:43:11;33.00;66.20
21518;DHT22;61765;45.794;24.150;2023-06-22T16:51:16;32.70;66.70
21518;DHT22;61765;45.794;24.150;2023-06-22T16:59:25;32.50;67.60
21518;DHT22;61765;45.794;24.150;2023-06-22T17:07:32;32.50;68.20
21518;DHT22;61765;45.794;24.150;2023-06-22T17:15:42;32.30;68.60
21518;DHT22;61765;45.794;24.150;2023-06-22T17:23:48;32.40;68.20
21518;DHT22;61765;45.794;24.150;2023-06-22T17:31:59;32.30;69.90
21518;DHT22;61765;45.794;24.150;2023-06-22T17:40:14;31.80;72.40
21518;DHT22;61765;45.794;24.150;2023-06-22T17:48:22;32.00;72.50
21518;DHT22;61765;45.794;24.150;2023-06-22T17:56:27;32.10;72.30
21518;DHT22;61765;45.794;24.150;2023-06-22T18:04:35;32.00;73.10
21518;DHT22;61765;45.794;24.150;2023-06-22T18:12:42;31.70;76.40
21518;DHT22;61765;45.794;24.150;2023-06-22T18:20:51;30.90;79.10
21518;DHT22;61765;45.794;24.150;2023-06-22T18:28:57;30.20;81.30
21518;DHT22;61765;45.794;24.150;2023-06-22T18:37:08;30.00;82.00
21518;DHT22;61765;45.794;24.150;2023-06-22T18:45:22;29.80;83.00
21518;DHT22;61765;45.794;24.150;2023-06-22T18:53:31;29.60;84.60
21518;DHT22;61765;45.794;24.150;2023-06-22T19:01:37;29.60;84.30
21518;DHT22;61765;45.794;24.150;2023-06-22T19:18:28;29.60;85.40
21518;DHT22;61765;45.794;24.150;2023-06-22T19:26:39;28.70;87.40
21518;DHT22;61765;45.794;24.150;2023-06-22T19:34:56;28.80;88.80
21518;DHT22;61765;45.794;24.150;2023-06-22T19:43:06;28.40;89.90
21518;DHT22;61765;45.794;24.150;2023-06-22T19:51:11;28.20;90.40
21518;DHT22;61765;45.794;24.150;2023-06-22T19:59:26;27.90;90.90
21518;DHT22;61765;45.794;24.150;2023-06-22T20:07:40;28.10;91.10
21518;DHT22;61765;45.794;24.150;2023-06-22T20:15:49;27.80;91.50
21518;DHT22;61765;45.794;24.150;2023-06-22T20:23:54;27.70;91.80
21518;DHT22;61765;45.794;24.150;2023-06-22T20:32:08;27.80;92.20
21518;DHT22;61765;45.794;24.150;2023-06-22T20:40:18;27.50;92.70
21518;DHT22;61765;45.794;24.150;2023-06-22T20:48:39;27.20;93.40
21518;DHT22;61765;45.794;24.150;2023-06-22T20:56:45;27.20;93.80
21518;DHT22;61765;45.794;24.150;2023-06-22T21:04:54;27.30;93.60
21518;DHT22;61765;45.794;24.150;2023-06-22T21:13:00;27.40;93.70
21518;DHT22;61765;45.794;24.150;2023-06-22T21:21:08;27.60;93.70
21518;DHT22;61765;45.794;24.150;2023-06-22T21:29:14;27.30;94.10
21518;DHT22;61765;45.794;24.150;2023-06-22T21:37:22;26.90;94.90
21518;DHT22;61765;45.794;24.150;2023-06-22T21:45:29;26.70;95.30
21518;DHT22;61765;45.794;24.150;2023-06-22T21:53:38;26.80;95.50
21518;DHT22;61765;45.794;24.150;2023-06-22T22:01:43;26.80;95.20
21518;DHT22;61765;45.794;24.150;2023-06-22T22:09:51;27.00;94.90
21518;DHT22;61765;45.794;24.150;2023-06-22T22:17:57;26.90;94.90
21518;DHT22;61765;45.794;24.150;2023-06-22T22:26:10;26.90;94.80
21518;DHT22;61765;45.794;24.150;2023-06-22T22:34:17;26.90;94.80
21518;DHT22;61765;45.794;24.150;2023-06-22T22:42:25;26.90;94.70
21518;DHT22;61765;45.794;24.150;2023-06-22T22:50:30;26.80;94.60
21518;DHT22;61765;45.794;24.150;2023-06-22T22:58:40;26.60;95.20
21518;DHT22;61765;45.794;24.150;2023-06-22T23:06:46;26.70;95.20
21518;DHT22;61765;45.794;24.150;2023-06-22T23:14:55;26.60;95.20
21518;DHT22;61765;45.794;24.150;2023-06-22T23:23:01;26.50;95.40
21518;DHT22;61765;45.794;24.150;2023-06-22T23:31:09;26.50;95.50
21518;DHT22;61765;45.794;24.150;2023-06-22T23:39:16;26.40;95.80
21518;DHT22;61765;45.794;24.150;2023-06-22T23:47:24;26.40;96.00
21518;DHT22;61765;45.794;24.150;2023-06-22T23:55:31;26.30;96.00
